Terminal Aerodrome Forecast
Issued by NWS Charleston, WV

Current Version | Previous Version | Text Only | Print | Product List | Glossary Off
Versions: 1 2 3 4 5 6 7 8 9 10 11 12 13 14 15 16 17 18 19 20 21 22 23 24

000
FTUS41 KRLX 151500 AAA
TAFEKN
TAF AMD
KEKN 151500Z 1515/1612 VRB02KT P6SM OVC007
     FM151700 VRB02KT P6SM BKN010
     FM151800 VRB02KT P6SM BKN040
     FM160200 00000KT P6SM OVC024
     FM160500 VRB02KT 4SM -RA BKN008
     FM160700 00000KT 1SM -RA BR OVC004=

USA.gov is the U.S. government's official web portal to all federal, state and local government web resources and services.